createdAt,value
2024-03-12T00:01:48.609Z,6.15
2024-03-12T00:04:17.772Z,6.45
2024-03-12T00:06:46.055Z,7.03
2024-03-12T00:09:13.927Z,7.90
2024-03-12T00:11:43.459Z,6.65
2024-03-12T00:14:12.454Z,9.18
2024-03-12T00:16:41.785Z,6.60
2024-03-12T00:19:11.455Z,5.95
2024-03-12T00:21:39.182Z,5.35
2024-03-12T00:24:07.217Z,4.22
2024-03-12T00:26:34.878Z,5.43
2024-03-12T00:29:02.750Z,5.03
2024-03-12T00:31:32.466Z,10.10
2024-03-12T00:34:01.518Z,6.03
2024-03-12T00:36:29.987Z,9.68
2024-03-12T00:38:58.720Z,11.38
2024-03-12T00:41:26.364Z,10.15
2024-03-12T00:43:55.247Z,8.93
2024-03-12T00:46:23.516Z,9.38
2024-03-12T00:48:53.086Z,9.57
2024-03-12T00:51:21.246Z,7.55
2024-03-12T00:53:48.950Z,8.38
2024-03-12T00:56:17.477Z,8.95
2024-03-12T00:58:45.895Z,8.45
2024-03-12T01:01:16.385Z,9.68
2024-03-12T01:03:47.725Z,10.60
2024-03-12T01:06:16.929Z,9.48
2024-03-12T01:08:44.540Z,12.68
2024-03-12T01:11:14.215Z,8.70
2024-03-12T01:13:41.963Z,9.38
2024-03-12T01:16:09.719Z,10.27
2024-03-12T01:18:37.495Z,8.00
2024-03-12T01:21:05.672Z,11.38
2024-03-12T01:23:35.893Z,9.73
2024-03-12T01:26:07.701Z,7.75
2024-03-12T01:28:36.272Z,9.02
2024-03-12T01:31:04.356Z,5.88
2024-03-12T01:33:32.138Z,6.85
2024-03-12T01:36:19.423Z,6.88
2024-03-12T01:38:49.790Z,8.07
2024-03-12T01:41:18.005Z,9.13
2024-03-12T01:43:45.818Z,5.57
2024-03-12T01:46:13.525Z,6.57
2024-03-12T01:48:41.600Z,6.22
2024-03-12T01:51:09.323Z,6.70
2024-03-12T01:53:37.056Z,8.15
2024-03-12T01:56:06.456Z,8.75
2024-03-12T01:58:34.384Z,9.52
2024-03-12T02:01:02.172Z,11.05
2024-03-12T02:03:34.689Z,5.90
2024-03-12T02:06:02.789Z,5.78
2024-03-12T02:08:33.358Z,5.35
2024-03-12T02:11:01.831Z,5.75
2024-03-12T02:13:31.118Z,4.93
2024-03-12T02:15:59.227Z,5.68
2024-03-12T02:18:26.938Z,6.10
2024-03-12T02:20:54.587Z,5.68
2024-03-12T02:23:35.953Z,4.50
2024-03-12T02:26:04.418Z,5.07
2024-03-12T02:28:32.585Z,4.85
2024-03-12T02:31:00.837Z,5.13
2024-03-12T02:33:28.743Z,5.60
2024-03-12T02:35:56.688Z,7.07
2024-03-12T02:38:25.684Z,5.78
2024-03-12T02:40:53.287Z,5.65
2024-03-12T02:43:20.941Z,5.80
2024-03-12T02:45:48.581Z,5.80
2024-03-12T02:48:16.616Z,6.25
2024-03-12T02:50:44.430Z,5.75
2024-03-12T02:53:12.157Z,4.22
2024-03-12T02:55:41.954Z,6.72
2024-03-12T02:58:10.178Z,7.60
2024-03-12T03:00:37.923Z,9.05
2024-03-12T03:03:05.986Z,9.75
2024-03-12T03:05:33.597Z,10.15
2024-03-12T03:08:01.476Z,8.13
2024-03-12T03:10:29.114Z,5.15
2024-03-12T03:12:58.162Z,5.10
2024-03-12T03:15:25.838Z,5.85
2024-03-12T03:17:53.984Z,4.97
2024-03-12T03:20:21.627Z,5.95
2024-03-12T03:22:49.234Z,6.00
2024-03-12T03:25:17.136Z,4.65
2024-03-12T03:27:44.891Z,4.47
2024-03-12T03:30:19.037Z,4.50
2024-03-12T03:32:47.434Z,4.03
2024-03-12T03:35:15.161Z,4.65
2024-03-12T03:37:43.861Z,3.80
2024-03-12T03:40:18.739Z,5.13
2024-03-12T03:42:46.578Z,6.97
2024-03-12T03:45:15.688Z,4.60
2024-03-12T03:47:43.278Z,3.60
2024-03-12T03:50:12.199Z,4.82
2024-03-12T03:52:39.857Z,5.18
2024-03-12T03:55:08.831Z,3.63
2024-03-12T03:57:36.524Z,3.53
2024-03-12T04:00:14.028Z,5.03
2024-03-12T04:02:44.686Z,6.75
2024-03-12T04:05:13.266Z,3.17
2024-03-12T04:07:41.985Z,4.60
2024-03-12T04:10:13.434Z,7.03
2024-03-12T04:12:41.727Z,3.78
2024-03-12T04:15:10.985Z,4.53
2024-03-12T04:17:39.109Z,4.65
2024-03-12T04:20:10.868Z,7.22
2024-03-12T04:22:38.645Z,5.22
2024-03-12T04:25:08.466Z,5.53
2024-03-12T04:30:06.611Z,4.00
2024-03-12T04:32:34.345Z,6.45
2024-03-12T04:35:05.653Z,5.32
2024-03-12T04:37:34.655Z,5.38
2024-03-12T04:40:07.754Z,5.18
2024-03-12T04:42:36.090Z,4.78
2024-03-12T04:45:05.818Z,5.20
2024-03-12T04:47:33.908Z,4.53
2024-03-12T04:50:02.133Z,3.50
2024-03-12T04:52:29.785Z,4.80
2024-03-12T04:54:59.197Z,6.32
2024-03-12T04:57:26.928Z,4.60
2024-03-12T04:59:55.668Z,5.00
2024-03-12T05:02:23.801Z,7.85
2024-03-12T05:04:51.487Z,5.70
2024-03-12T05:07:19.178Z,6.35
2024-03-12T05:09:46.868Z,5.03
2024-03-12T05:12:15.938Z,4.90
2024-03-12T05:14:44.585Z,6.10
2024-03-12T05:17:12.200Z,5.03
2024-03-12T05:19:39.860Z,3.90
2024-03-12T05:22:08.297Z,5.25
2024-03-12T05:24:36.705Z,5.80
2024-03-12T05:27:05.194Z,5.18
2024-03-12T05:29:37.908Z,4.68
2024-03-12T05:32:18.839Z,3.70
2024-03-12T05:34:48.577Z,9.52
2024-03-12T05:37:29.995Z,5.07
2024-03-12T05:40:14.700Z,5.20
2024-03-12T05:43:00.142Z,6.82
2024-03-12T05:45:46.888Z,7.40
2024-03-12T05:48:14.847Z,4.95
2024-03-12T05:50:42.935Z,6.28
2024-03-12T05:53:10.710Z,6.60
2024-03-12T05:55:41.445Z,4.88
2024-03-12T05:58:11.225Z,4.95
2024-03-12T06:00:40.677Z,6.32
2024-03-12T06:03:08.346Z,6.25
2024-03-12T06:05:35.950Z,9.00
2024-03-12T06:08:03.600Z,6.43
2024-03-12T06:10:32.340Z,5.80
2024-03-12T06:13:00.009Z,9.88
2024-03-12T06:15:27.693Z,7.35
2024-03-12T06:17:56.756Z,6.93
2024-03-12T06:20:25.293Z,6.63
2024-03-12T06:22:53.481Z,7.63
2024-03-12T06:25:21.409Z,9.35
2024-03-12T06:27:50.231Z,10.88
2024-03-12T06:30:19.549Z,8.75
2024-03-12T06:32:47.255Z,9.57
2024-03-12T06:35:16.335Z,8.27
2024-03-12T06:37:43.976Z,10.38
2024-03-12T06:40:12.610Z,7.57
2024-03-12T06:42:42.920Z,9.57
2024-03-12T06:45:12.859Z,11.15
2024-03-12T06:47:42.696Z,7.65
2024-03-12T06:50:11.407Z,9.88
2024-03-12T06:52:40.389Z,6.20
2024-03-12T06:55:16.854Z,11.45
2024-03-12T06:57:49.221Z,7.82
2024-03-12T07:00:27.621Z,9.63
2024-03-12T07:02:55.913Z,15.35
2024-03-12T07:05:24.183Z,10.63
2024-03-12T07:07:54.789Z,9.20
2024-03-12T07:10:23.814Z,8.98
2024-03-12T07:12:51.942Z,7.88
2024-03-12T07:15:20.832Z,5.65
2024-03-12T07:17:48.837Z,6.47
2024-03-12T07:20:17.130Z,6.85
2024-03-12T07:22:46.178Z,7.15
2024-03-12T07:25:17.124Z,7.35
2024-03-12T07:27:45.009Z,6.32
2024-03-12T07:30:14.147Z,6.63
2024-03-12T07:32:41.901Z,6.72
2024-03-12T07:35:10.105Z,7.57
2024-03-12T07:37:39.539Z,5.97
2024-03-12T07:40:10.672Z,8.77
2024-03-12T07:42:42.445Z,7.78
2024-03-12T07:45:11.046Z,5.78
2024-03-12T07:47:40.697Z,7.60
2024-03-12T07:50:09.327Z,5.25
2024-03-12T07:52:37.169Z,8.77
2024-03-12T07:55:07.198Z,8.60
2024-03-12T07:57:36.497Z,8.43
2024-03-12T08:00:12.523Z,7.82
2024-03-12T08:02:40.804Z,6.57
2024-03-12T08:05:08.668Z,7.25
2024-03-12T08:07:36.399Z,6.57
2024-03-12T08:10:06.828Z,4.70
2024-03-12T08:12:34.886Z,5.55
2024-03-12T08:15:02.839Z,5.20
2024-03-12T08:17:32.085Z,6.47
2024-03-12T08:19:59.780Z,6.07
2024-03-12T08:22:28.229Z,4.65
2024-03-12T08:24:56.225Z,4.85
2024-03-12T08:27:23.954Z,5.82
2024-03-12T08:29:51.890Z,4.80
2024-03-12T08:32:22.214Z,4.50
2024-03-12T08:34:52.695Z,5.40
2024-03-12T08:37:20.448Z,4.38
2024-03-12T08:39:48.243Z,6.45
2024-03-12T08:42:15.945Z,11.57
2024-03-12T08:44:44.461Z,7.28
2024-03-12T08:47:12.620Z,5.55
2024-03-12T08:49:40.459Z,7.47
2024-03-12T08:52:09.749Z,5.50
2024-03-12T08:54:37.521Z,5.32
2024-03-12T08:57:05.327Z,8.52
2024-03-12T08:59:33.028Z,5.00
2024-03-12T09:02:01.196Z,5.38
2024-03-12T09:04:31.700Z,7.47
2024-03-12T09:07:00.396Z,7.57
2024-03-12T09:09:30.364Z,7.95
2024-03-12T09:11:59.181Z,6.82
2024-03-12T09:14:26.959Z,5.68
2024-03-12T09:16:54.619Z,6.20
2024-03-12T09:19:23.258Z,5.63
2024-03-12T09:21:51.188Z,7.95
2024-03-12T09:24:20.153Z,5.53
2024-03-12T09:26:49.165Z,5.80
2024-03-12T09:29:16.958Z,5.85
2024-03-12T09:31:44.581Z,4.28
2024-03-12T09:34:13.522Z,7.97
2024-03-12T09:36:41.318Z,4.75
2024-03-12T09:39:12.218Z,4.30
2024-03-12T09:41:43.397Z,4.90
2024-03-12T09:44:13.147Z,5.72
2024-03-12T09:49:09.860Z,5.35
2024-03-12T09:51:37.544Z,4.97
2024-03-12T09:54:05.651Z,5.68
2024-03-12T09:56:34.710Z,5.40
2024-03-12T09:59:02.389Z,7.40
2024-03-12T10:01:31.430Z,4.82
2024-03-12T10:03:59.120Z,4.07
2024-03-12T10:06:27.056Z,4.80
2024-03-12T10:08:58.193Z,5.82
2024-03-12T10:11:25.950Z,6.82
2024-03-12T10:13:58.055Z,4.95
2024-03-12T10:16:26.798Z,4.03
2024-03-12T10:19:12.708Z,6.07
2024-03-12T10:21:41.659Z,5.25
2024-03-12T10:24:14.432Z,5.63
2024-03-12T10:26:43.192Z,3.63
2024-03-12T10:29:12.187Z,4.50
2024-03-12T10:31:44.757Z,4.47
2024-03-12T10:34:18.638Z,2.78
2024-03-12T10:36:47.281Z,3.97
2024-03-12T10:39:27.034Z,2.85
2024-03-12T10:41:57.504Z,4.72
2024-03-12T10:44:25.239Z,3.65
2024-03-12T10:46:53.678Z,3.70
2024-03-12T10:49:27.381Z,3.70
2024-03-12T10:51:55.363Z,6.20
2024-03-12T10:54:23.975Z,3.55
2024-03-12T10:56:52.236Z,3.47
2024-03-12T10:59:22.471Z,4.32
2024-03-12T11:01:50.322Z,2.90
2024-03-12T11:04:18.467Z,3.10
2024-03-12T11:06:49.251Z,3.40
2024-03-12T11:09:22.902Z,4.55
2024-03-12T11:11:51.492Z,4.88
2024-03-12T11:14:19.193Z,4.72
2024-03-12T11:16:46.814Z,2.08
2024-03-12T11:19:23.283Z,3.63
2024-03-12T11:21:52.815Z,3.00
2024-03-12T11:24:27.172Z,4.38
2024-03-12T11:26:55.758Z,4.43
2024-03-12T11:30:06.504Z,3.20
2024-03-12T11:32:34.947Z,3.33
2024-03-12T11:35:04.947Z,4.13
2024-03-12T11:37:34.154Z,3.15
2024-03-12T11:40:27.636Z,4.88
2024-03-12T11:42:57.126Z,4.20
2024-03-12T11:45:38.839Z,3.45
2024-03-12T11:48:08.764Z,2.47
2024-03-12T11:50:38.078Z,3.78
2024-03-12T11:53:18.874Z,2.70
2024-03-12T11:56:02.839Z,3.80
2024-03-12T11:58:33.655Z,2.95
2024-03-12T12:01:02.518Z,2.78
2024-03-12T12:03:30.401Z,3.95
2024-03-12T12:05:58.123Z,3.63
2024-03-12T12:08:27.332Z,2.67
2024-03-12T12:11:01.115Z,3.05
2024-03-12T12:13:28.960Z,4.38
2024-03-12T12:16:00.825Z,2.78
2024-03-12T12:18:28.782Z,4.60
2024-03-12T12:20:59.071Z,3.40
2024-03-12T12:23:28.723Z,2.25
2024-03-12T12:25:57.150Z,3.97
2024-03-12T12:28:26.605Z,5.25
2024-03-12T12:30:56.779Z,2.30
2024-03-12T12:33:26.506Z,2.42
2024-03-12T12:38:24.711Z,2.67
2024-03-12T12:40:54.802Z,4.28
2024-03-12T12:43:22.918Z,4.10
2024-03-12T12:45:51.145Z,12.25
2024-03-12T12:48:19.651Z,4.32
2024-03-12T12:50:54.642Z,3.28
2024-03-12T12:53:22.816Z,5.45
2024-03-12T12:55:58.373Z,2.67
2024-03-12T12:58:27.257Z,3.72
2024-03-12T13:01:02.132Z,3.63
2024-03-12T13:03:35.548Z,4.65
2024-03-12T13:06:14.360Z,6.72
2024-03-12T13:08:43.093Z,4.47
2024-03-12T13:11:13.633Z,4.13
2024-03-12T13:13:42.587Z,4.15
2024-03-12T13:16:18.918Z,3.63
2024-03-12T13:18:48.019Z,5.80
2024-03-12T13:21:17.257Z,3.28
2024-03-12T13:23:46.052Z,2.95
2024-03-12T13:26:16.178Z,4.50
2024-03-12T13:28:44.359Z,6.75
2024-03-12T13:31:12.449Z,5.90
2024-03-12T13:33:40.470Z,4.28
2024-03-12T13:36:11.007Z,4.38
2024-03-12T13:38:40.756Z,4.28
2024-03-12T13:41:08.784Z,3.78
2024-03-12T13:43:37.998Z,5.35
2024-03-12T13:46:07.383Z,4.07
2024-03-12T13:48:37.747Z,3.22
2024-03-12T13:51:08.780Z,2.72
2024-03-12T13:53:37.571Z,4.07
2024-03-12T13:56:06.159Z,3.63
2024-03-12T13:58:34.286Z,3.35
2024-03-12T14:01:03.357Z,4.68
2024-03-12T14:03:31.992Z,4.55
2024-03-12T14:06:00.669Z,3.17
2024-03-12T14:08:28.683Z,4.78
2024-03-12T14:10:58.079Z,4.10
2024-03-12T14:13:27.994Z,5.13
2024-03-12T14:18:24.738Z,7.40
2024-03-12T14:20:54.734Z,4.97
2024-03-12T14:23:22.379Z,4.40
2024-03-12T14:25:50.838Z,5.13
2024-03-12T14:28:18.506Z,6.05
2024-03-12T14:30:46.547Z,4.45
2024-03-12T14:33:14.230Z,4.43
2024-03-12T14:35:43.252Z,3.08
2024-03-12T14:38:10.948Z,6.88
2024-03-12T14:40:38.526Z,5.35
2024-03-12T14:43:06.217Z,4.53
2024-03-12T14:45:33.976Z,4.30
2024-03-12T14:48:03.540Z,5.70
2024-03-12T14:50:31.228Z,5.03
2024-03-12T14:53:00.253Z,5.45
2024-03-12T14:55:27.963Z,4.65
2024-03-12T14:57:55.788Z,5.03
2024-03-12T15:00:24.475Z,5.25
2024-03-12T15:02:52.166Z,4.50
2024-03-12T15:05:21.564Z,4.22
2024-03-12T15:07:49.644Z,4.65
2024-03-12T15:10:19.054Z,5.53
2024-03-12T15:12:46.901Z,4.43
2024-03-12T15:15:16.083Z,4.75
2024-03-12T15:17:45.954Z,6.40
2024-03-12T15:20:15.950Z,4.47
2024-03-12T15:22:44.322Z,3.75
2024-03-12T15:25:13.228Z,4.07
2024-03-12T15:27:43.345Z,4.18
2024-03-12T15:30:11.909Z,4.47
2024-03-12T15:32:40.347Z,4.07
2024-03-12T15:35:11.337Z,3.95
2024-03-12T15:37:39.033Z,4.00
2024-03-12T15:40:09.215Z,3.95
2024-03-12T15:42:39.289Z,5.13
2024-03-12T15:45:11.930Z,4.68
2024-03-12T15:47:40.782Z,4.88
2024-03-12T15:50:09.363Z,5.63
2024-03-12T15:52:37.059Z,4.18
2024-03-12T15:55:05.411Z,4.72
2024-03-12T15:57:33.887Z,5.78
2024-03-12T16:00:08.104Z,4.13
2024-03-12T16:02:37.085Z,13.10
2024-03-12T16:05:06.316Z,7.45
2024-03-12T16:07:35.442Z,5.53
2024-03-12T16:10:03.556Z,5.65
2024-03-12T16:12:31.269Z,6.93
2024-03-12T16:14:58.912Z,7.28
2024-03-12T16:17:30.815Z,5.75
2024-03-12T16:20:00.909Z,6.60
2024-03-12T16:22:28.600Z,5.72
2024-03-12T16:24:56.275Z,7.20
2024-03-12T16:27:23.905Z,8.32
2024-03-12T16:29:52.404Z,6.97
2024-03-12T16:32:20.076Z,6.78
2024-03-12T16:34:47.732Z,9.45
2024-03-12T16:37:16.975Z,9.23
2024-03-12T16:39:45.802Z,7.40
2024-03-12T16:42:14.114Z,7.70
2024-03-12T16:44:41.757Z,8.05
2024-03-12T16:47:12.176Z,6.22
2024-03-12T16:49:39.901Z,6.85
2024-03-12T16:52:07.950Z,9.07
2024-03-12T16:54:37.944Z,5.85
2024-03-12T16:57:06.446Z,7.75
2024-03-12T17:02:19.144Z,7.13
2024-03-12T17:04:47.366Z,7.75
2024-03-12T17:07:16.850Z,7.18
2024-03-12T17:09:47.211Z,6.82
2024-03-12T17:12:16.110Z,7.70
2024-03-12T17:14:44.415Z,7.55
2024-03-12T17:17:13.280Z,7.50
2024-03-12T17:19:41.343Z,5.85
2024-03-12T17:22:11.521Z,5.88
2024-03-12T17:24:40.743Z,7.80
2024-03-12T17:27:11.423Z,7.22
2024-03-12T17:29:42.562Z,5.72
2024-03-12T17:32:12.074Z,6.72
2024-03-12T17:34:40.411Z,5.97
2024-03-12T17:37:09.600Z,6.57
2024-03-12T17:39:38.344Z,6.63
2024-03-12T17:42:09.602Z,5.35
2024-03-12T17:44:39.725Z,5.88
2024-03-12T17:47:10.174Z,5.95
2024-03-12T17:49:40.346Z,5.78
2024-03-12T17:52:09.485Z,6.18
2024-03-12T17:54:39.559Z,5.28
2024-03-12T17:57:10.880Z,5.32
2024-03-12T17:59:41.103Z,7.38
2024-03-12T18:02:13.382Z,7.00
2024-03-12T18:04:41.810Z,6.55
2024-03-12T18:07:21.121Z,7.15
2024-03-12T18:09:52.558Z,7.50
2024-03-12T18:12:22.490Z,6.07
2024-03-12T18:14:51.560Z,6.93
2024-03-12T18:17:21.600Z,7.32
2024-03-12T18:19:49.389Z,6.78
2024-03-12T18:22:17.490Z,6.55
2024-03-12T18:24:45.824Z,8.95
2024-03-12T18:27:13.645Z,9.32
2024-03-12T18:29:44.090Z,9.20
2024-03-12T18:32:15.946Z,11.25
2024-03-12T18:34:43.891Z,7.13
2024-03-12T18:37:11.654Z,9.57
2024-03-12T18:39:40.158Z,8.00
2024-03-12T18:42:08.203Z,6.53
2024-03-12T18:44:38.120Z,9.48
2024-03-12T18:47:06.238Z,7.43
2024-03-12T18:49:35.959Z,7.75
2024-03-12T18:52:04.196Z,11.32
2024-03-12T18:54:32.324Z,10.15
2024-03-12T18:57:01.121Z,13.98
2024-03-12T18:59:29.248Z,11.27
2024-03-12T19:02:03.268Z,11.10
2024-03-12T19:04:32.081Z,16.13
2024-03-12T19:07:01.817Z,13.23
2024-03-12T19:12:01.760Z,12.57
2024-03-12T19:14:30.979Z,12.88
2024-03-12T19:17:01.131Z,14.50
2024-03-12T19:19:30.582Z,15.30
2024-03-12T19:21:58.932Z,14.70
2024-03-12T19:24:28.026Z,13.63
2024-03-12T19:26:57.625Z,12.45
2024-03-12T19:29:25.445Z,9.48
2024-03-12T19:31:53.766Z,14.38
2024-03-12T19:34:22.179Z,13.77
2024-03-12T19:36:50.352Z,13.25
2024-03-12T19:39:18.539Z,11.98
2024-03-12T19:41:49.167Z,14.77
2024-03-12T19:44:17.260Z,13.02
2024-03-12T19:46:45.589Z,12.88
2024-03-12T19:49:14.720Z,10.57
2024-03-12T19:51:43.160Z,10.15
2024-03-12T19:54:17.008Z,8.07
2024-03-12T19:56:44.789Z,9.95
2024-03-12T19:59:14.895Z,9.30
2024-03-12T20:01:43.359Z,10.65
2024-03-12T20:04:12.276Z,10.35
2024-03-12T20:06:42.075Z,12.57
2024-03-12T20:09:23.308Z,11.57
2024-03-12T20:11:52.321Z,8.50
2024-03-12T20:14:24.903Z,10.93
2024-03-12T20:16:52.790Z,9.40
2024-03-12T20:19:20.971Z,11.35
2024-03-12T20:21:48.883Z,15.48
2024-03-12T20:24:18.574Z,15.20
2024-03-12T20:26:47.467Z,17.17
2024-03-12T20:29:15.502Z,16.15
2024-03-12T20:31:45.637Z,11.68
2024-03-12T20:34:13.501Z,16.92
2024-03-12T20:36:47.029Z,13.48
2024-03-12T20:39:14.907Z,13.90
2024-03-12T20:41:43.167Z,11.60
2024-03-12T20:44:10.832Z,13.05
2024-03-12T20:46:38.564Z,13.82
2024-03-12T20:49:07.638Z,12.10
2024-03-12T20:51:35.631Z,10.88
2024-03-12T20:54:04.303Z,16.30
2024-03-12T20:56:32.076Z,16.23
2024-03-12T20:58:59.774Z,18.75
2024-03-12T21:01:27.488Z,17.50
2024-03-12T21:03:55.732Z,10.88
2024-03-12T21:06:25.560Z,15.70
2024-03-12T21:08:53.321Z,15.63
2024-03-12T21:11:22.125Z,16.58
2024-03-12T21:13:49.744Z,16.13
2024-03-12T21:16:17.561Z,18.48
2024-03-12T21:18:45.334Z,16.77
2024-03-12T21:21:16.304Z,12.95
2024-03-12T21:23:46.792Z,15.65
2024-03-12T21:26:21.487Z,15.77
2024-03-12T21:28:49.137Z,13.15
2024-03-12T21:31:17.519Z,14.43
2024-03-12T21:33:45.348Z,14.73
2024-03-12T21:36:15.843Z,14.23
2024-03-12T21:38:44.779Z,13.25
2024-03-12T21:41:14.070Z,14.48
2024-03-12T21:43:41.709Z,12.27
2024-03-12T21:46:09.353Z,14.35
2024-03-12T21:48:37.058Z,14.25
2024-03-12T21:51:06.527Z,19.67
2024-03-12T21:53:34.190Z,16.05
2024-03-12T21:56:03.175Z,18.27
2024-03-12T21:58:32.631Z,17.27
2024-03-12T22:01:00.332Z,16.90
2024-03-12T22:03:28.208Z,18.65
2024-03-12T22:05:56.386Z,16.88
2024-03-12T22:08:24.523Z,15.88
2024-03-12T22:10:52.448Z,16.80
2024-03-12T22:13:28.479Z,17.50
2024-03-12T22:15:59.642Z,15.68
2024-03-12T22:18:27.265Z,19.77
2024-03-12T22:20:56.276Z,15.45
2024-03-12T22:23:28.912Z,18.00
2024-03-12T22:25:56.762Z,15.98
2024-03-12T22:28:27.589Z,16.45
2024-03-12T22:30:55.300Z,14.77
2024-03-12T22:33:23.180Z,19.35
2024-03-12T22:35:50.820Z,22.10
2024-03-12T22:38:19.420Z,18.23
2024-03-12T22:40:48.012Z,18.92
2024-03-12T22:43:16.219Z,19.65
2024-03-12T22:45:45.689Z,23.30
2024-03-12T22:48:13.778Z,21.20
2024-03-12T22:50:42.612Z,20.02
2024-03-12T22:53:10.726Z,22.50
2024-03-12T22:55:39.481Z,19.40
2024-03-12T22:58:07.893Z,18.63
2024-03-12T23:00:42.486Z,20.80
2024-03-12T23:03:13.807Z,18.48
2024-03-12T23:05:42.778Z,20.50
2024-03-12T23:08:13.384Z,27.70
2024-03-12T23:10:42.846Z,23.23
2024-03-12T23:13:12.259Z,23.00
2024-03-12T23:15:40.037Z,22.52
2024-03-12T23:18:10.424Z,20.13
2024-03-12T23:20:41.487Z,21.83
2024-03-12T23:23:09.576Z,19.58
2024-03-12T23:25:38.224Z,24.25
2024-03-12T23:28:07.114Z,22.83
2024-03-12T23:30:34.890Z,22.80
2024-03-12T23:33:03.160Z,18.73
2024-03-12T23:35:31.071Z,18.80
2024-03-12T23:38:00.188Z,20.02
2024-03-12T23:40:28.956Z,23.90
2024-03-12T23:42:57.219Z,24.00
2024-03-12T23:45:24.931Z,23.92
2024-03-12T23:47:53.501Z,21.98
2024-03-12T23:50:21.199Z,24.27
2024-03-12T23:52:49.721Z,20.70
2024-03-12T23:55:19.027Z,25.40
2024-03-12T23:57:47.065Z,22.77
